createdAt,value
2022-10-23T00:01:45.518Z,65.20
2022-10-23T00:04:17.725Z,66.40
2022-10-23T00:06:46.619Z,66.20
2022-10-23T00:09:17.664Z,62.90
2022-10-23T00:11:51.028Z,69.40
2022-10-23T00:14:22.491Z,67.70
2022-10-23T00:16:50.842Z,67.80
2022-10-23T00:19:18.857Z,66.50
2022-10-23T00:21:46.909Z,69.90
2022-10-23T00:24:15.252Z,74.00
2022-10-23T00:26:43.713Z,71.60
2022-10-23T00:29:12.305Z,67.10
2022-10-23T00:31:40.342Z,67.10
2022-10-23T00:34:08.937Z,67.80
2022-10-23T00:36:38.190Z,70.60
2022-10-23T00:39:06.989Z,68.20
2022-10-23T00:41:35.132Z,70.40
2022-10-23T00:44:10.243Z,65.50
2022-10-23T00:46:40.203Z,70.30
2022-10-23T00:49:09.894Z,66.30
2022-10-23T00:51:49.033Z,67.40
2022-10-23T00:54:24.306Z,67.20
2022-10-23T00:59:25.145Z,65.60
2022-10-23T01:01:53.239Z,66.90
2022-10-23T01:04:22.682Z,68.20
2022-10-23T01:06:58.695Z,66.20
2022-10-23T01:12:11.846Z,66.70
2022-10-23T01:14:47.382Z,71.20
2022-10-23T01:17:44.436Z,67.40
2022-10-23T01:20:34.595Z,70.20
2022-10-23T01:23:22.273Z,69.40
2022-10-23T01:26:27.818Z,70.70
2022-10-23T01:29:03.512Z,63.40
2022-10-23T01:31:42.883Z,68.50
2022-10-23T01:34:16.514Z,71.00
2022-10-23T01:36:49.271Z,70.60
2022-10-23T01:39:27.870Z,72.20
2022-10-23T01:42:24.261Z,64.90
2022-10-23T01:45:07.173Z,70.70
2022-10-23T01:47:44.046Z,72.60
2022-10-23T01:50:15.601Z,71.60
2022-10-23T01:52:46.532Z,71.60
2022-10-23T01:55:15.485Z,68.10
2022-10-23T01:57:46.661Z,64.40
2022-10-23T02:00:17.837Z,67.70
2022-10-23T02:02:57.787Z,67.30
2022-10-23T02:05:32.092Z,66.90
2022-10-23T02:08:01.525Z,66.50
2022-10-23T02:10:40.378Z,61.70
2022-10-23T02:13:21.525Z,61.70
2022-10-23T02:16:01.988Z,63.20
2022-10-23T02:18:44.878Z,61.50
2022-10-23T02:21:17.877Z,63.20
2022-10-23T02:23:56.897Z,59.00
2022-10-23T02:26:33.646Z,59.90
2022-10-23T02:29:15.344Z,56.00
2022-10-23T02:31:46.094Z,54.80
2022-10-23T02:34:14.069Z,57.30
2022-10-23T02:36:42.866Z,55.20
2022-10-23T02:39:11.257Z,54.20
2022-10-23T02:41:42.592Z,52.30
2022-10-23T02:44:31.363Z,55.10
2022-10-23T02:47:23.606Z,49.80
2022-10-23T02:50:11.241Z,43.60
2022-10-23T02:52:54.095Z,54.80
2022-10-23T02:55:54.170Z,50.20
2022-10-23T02:58:39.334Z,53.50
2022-10-23T03:01:18.087Z,50.60
2022-10-23T03:03:53.532Z,51.30
2022-10-23T03:06:22.941Z,36.10
2022-10-23T03:08:58.200Z,54.40
2022-10-23T03:11:26.822Z,51.70
2022-10-23T03:13:56.371Z,54.60
2022-10-23T03:16:24.724Z,55.80
2022-10-23T03:18:55.441Z,58.90
2022-10-23T03:21:24.354Z,57.60
2022-10-23T03:23:54.088Z,55.50
2022-10-23T03:26:28.862Z,55.00
2022-10-23T03:28:56.950Z,56.00
2022-10-23T03:31:25.002Z,52.80
2022-10-23T03:33:56.610Z,57.90
2022-10-23T03:36:24.913Z,55.10
2022-10-23T03:38:53.959Z,52.90
2022-10-23T03:41:22.225Z,54.90
2022-10-23T03:43:50.244Z,52.90
2022-10-23T03:46:18.170Z,54.20
2022-10-23T03:48:46.251Z,56.00
2022-10-23T03:51:14.362Z,54.70
2022-10-23T03:53:42.310Z,50.20
2022-10-23T03:56:10.389Z,52.70
2022-10-23T03:58:38.363Z,54.70
2022-10-23T04:01:06.347Z,50.10
2022-10-23T04:03:34.350Z,49.80
2022-10-23T04:06:02.448Z,51.60
2022-10-23T04:08:30.570Z,50.00
2022-10-23T04:10:58.894Z,51.60
2022-10-23T04:13:43.159Z,50.80
2022-10-23T04:16:11.356Z,47.90
2022-10-23T04:18:42.256Z,49.30
2022-10-23T04:21:12.087Z,46.70
2022-10-23T04:23:40.236Z,45.70
2022-10-23T04:26:13.863Z,42.90
2022-10-23T04:28:41.974Z,44.20
2022-10-23T04:31:10.582Z,43.70
2022-10-23T04:33:41.940Z,46.40
2022-10-23T04:36:10.775Z,46.50
2022-10-23T04:38:40.461Z,42.30
2022-10-23T04:41:08.651Z,41.50
2022-10-23T04:43:36.996Z,40.50
2022-10-23T04:46:05.936Z,37.80
2022-10-23T04:48:35.617Z,39.50
2022-10-23T04:51:41.783Z,37.40
2022-10-23T04:54:37.876Z,37.60
2022-10-23T04:57:24.566Z,36.80
2022-10-23T05:00:14.963Z,38.60
2022-10-23T05:02:50.823Z,37.80
2022-10-23T05:05:19.195Z,36.10
2022-10-23T05:07:57.496Z,41.80
2022-10-23T05:10:31.525Z,39.50
2022-10-23T05:13:07.632Z,43.30
2022-10-23T05:15:35.921Z,33.90
2022-10-23T05:18:13.397Z,37.50
2022-10-23T05:20:45.105Z,38.10
2022-10-23T05:23:16.751Z,41.70
2022-10-23T05:25:53.660Z,38.20
2022-10-23T05:28:22.886Z,36.20
2022-10-23T05:30:51.295Z,37.30
2022-10-23T05:33:19.855Z,37.90
2022-10-23T05:35:50.984Z,35.50
2022-10-23T05:38:19.465Z,25.80
2022-10-23T05:40:47.688Z,35.70
2022-10-23T05:43:18.976Z,35.50
2022-10-23T05:46:07.778Z,35.70
2022-10-23T05:48:51.085Z,35.90
2022-10-23T05:51:39.522Z,35.80
2022-10-23T05:54:27.756Z,33.50
2022-10-23T05:59:51.526Z,35.10
2022-10-23T06:02:42.935Z,34.00
2022-10-23T06:05:35.910Z,31.00
2022-10-23T06:08:20.071Z,25.40
2022-10-23T06:10:50.031Z,29.40
2022-10-23T06:13:18.097Z,27.30
2022-10-23T06:15:46.398Z,25.40
2022-10-23T06:18:20.857Z,25.40
2022-10-23T06:21:05.368Z,25.80
2022-10-23T06:23:35.448Z,26.70
2022-10-23T06:26:29.455Z,22.60
2022-10-23T06:29:06.748Z,28.50
2022-10-23T06:31:35.039Z,27.70
2022-10-23T06:34:06.164Z,28.10
2022-10-23T06:36:34.453Z,27.20
2022-10-23T06:39:21.277Z,28.40
2022-10-23T06:42:07.888Z,27.70
2022-10-23T06:45:06.252Z,20.40
2022-10-23T06:47:54.193Z,29.10
2022-10-23T06:50:42.467Z,25.20
2022-10-23T06:53:13.625Z,23.70
2022-10-23T06:55:50.022Z,22.30
2022-10-23T06:58:21.201Z,22.40
2022-10-23T07:01:13.006Z,21.70
2022-10-23T07:03:42.654Z,19.80
2022-10-23T07:06:11.592Z,17.90
2022-10-23T07:08:40.457Z,19.60
2022-10-23T07:11:34.839Z,19.70
2022-10-23T07:14:03.028Z,23.80
2022-10-23T07:16:32.151Z,25.70
2022-10-23T07:19:02.028Z,24.90
2022-10-23T07:21:35.247Z,26.30
2022-10-23T07:24:17.446Z,25.00
2022-10-23T07:26:45.775Z,24.00
2022-10-23T07:29:15.234Z,27.60
2022-10-23T07:31:43.626Z,27.80
2022-10-23T07:34:27.877Z,27.50
2022-10-23T07:37:12.306Z,28.00
2022-10-23T07:39:40.387Z,26.30
2022-10-23T07:42:10.235Z,26.10
2022-10-23T07:44:38.283Z,24.60
2022-10-23T07:47:06.463Z,22.90
2022-10-23T07:49:34.681Z,24.80
2022-10-23T07:52:05.471Z,21.80
2022-10-23T07:54:43.059Z,20.70
2022-10-23T07:57:21.600Z,19.50
2022-10-23T08:02:58.024Z,19.70
2022-10-23T08:05:26.353Z,19.40
2022-10-23T08:07:58.856Z,18.70
2022-10-23T08:10:26.983Z,19.00
2022-10-23T08:12:55.190Z,19.90
2022-10-23T08:15:32.107Z,16.50
2022-10-23T08:18:04.632Z,18.20
2022-10-23T08:20:48.118Z,19.20
2022-10-23T08:23:18.627Z,16.40
2022-10-23T08:25:47.191Z,18.90
2022-10-23T08:28:16.669Z,17.80
2022-10-23T08:30:52.513Z,15.30
2022-10-23T08:33:20.869Z,15.10
2022-10-23T08:35:49.302Z,16.20
2022-10-23T08:38:20.673Z,15.10
2022-10-23T08:40:49.682Z,14.60
2022-10-23T08:43:57.011Z,13.90
2022-10-23T08:46:42.356Z,14.80
2022-10-23T08:49:54.077Z,14.10
2022-10-23T08:52:25.523Z,15.00
2022-10-23T08:54:58.195Z,13.90
2022-10-23T08:57:39.993Z,14.90
2022-10-23T09:00:18.483Z,15.30
2022-10-23T09:02:49.821Z,13.40
2022-10-23T09:05:20.863Z,14.10
2022-10-23T09:08:17.857Z,15.30
2022-10-23T09:11:07.471Z,16.50
2022-10-23T09:13:38.551Z,15.30
2022-10-23T09:16:22.947Z,15.90
2022-10-23T09:18:52.337Z,16.90
2022-10-23T09:21:22.014Z,17.50
2022-10-23T09:23:49.960Z,17.50
2022-10-23T09:26:19.234Z,16.60
2022-10-23T09:28:53.073Z,14.90
2022-10-23T09:31:21.173Z,17.50
2022-10-23T09:34:01.171Z,15.30
2022-10-23T09:36:29.935Z,15.50
2022-10-23T09:39:00.448Z,15.90
2022-10-23T09:41:28.389Z,16.10
2022-10-23T09:44:08.765Z,15.10
2022-10-23T09:46:38.105Z,14.90
2022-10-23T09:49:08.035Z,14.30
2022-10-23T09:51:42.038Z,15.00
2022-10-23T09:54:16.852Z,15.50
2022-10-23T09:59:24.169Z,11.60
2022-10-23T10:01:58.318Z,12.00
2022-10-23T10:04:55.824Z,11.40
2022-10-23T10:07:27.345Z,11.10
2022-10-23T10:09:56.888Z,11.40
2022-10-23T10:12:53.299Z,10.00
2022-10-23T10:15:31.744Z,9.80
2022-10-23T10:18:22.996Z,9.90
2022-10-23T10:21:20.888Z,9.60
2022-10-23T10:24:13.838Z,9.40
2022-10-23T10:27:11.877Z,9.00
2022-10-23T10:29:48.982Z,9.80
2022-10-23T10:32:20.541Z,10.00
2022-10-23T10:35:14.985Z,8.30
2022-10-23T10:37:57.400Z,6.60
2022-10-23T10:40:43.746Z,7.20
2022-10-23T10:43:39.561Z,7.60
2022-10-23T10:46:43.120Z,7.40
2022-10-23T10:49:19.942Z,8.00
2022-10-23T10:52:11.176Z,9.00
2022-10-23T10:54:57.937Z,7.90
2022-10-23T10:57:44.332Z,9.00
2022-10-23T11:00:18.908Z,8.90
2022-10-23T11:03:09.686Z,9.80
2022-10-23T11:05:46.785Z,11.20
2022-10-23T11:08:40.199Z,11.60
2022-10-23T11:11:38.007Z,9.70
2022-10-23T11:14:14.672Z,8.90
2022-10-23T11:16:48.260Z,9.00
2022-10-23T11:19:25.708Z,9.70
2022-10-23T11:21:59.573Z,7.30
2022-10-23T11:24:58.521Z,9.00
2022-10-23T11:27:31.701Z,9.20
2022-10-23T11:32:51.931Z,8.10
2022-10-23T11:35:57.467Z,7.30
2022-10-23T11:38:30.467Z,7.40
2022-10-23T11:41:02.702Z,7.10
2022-10-23T11:43:48.655Z,5.20
2022-10-23T11:46:26.495Z,6.40
2022-10-23T11:48:56.209Z,6.60
2022-10-23T11:51:31.686Z,6.60
2022-10-23T11:54:12.216Z,6.40
2022-10-23T11:57:08.076Z,5.40
2022-10-23T11:59:41.371Z,4.90
2022-10-23T12:02:36.931Z,4.70
2022-10-23T12:05:25.415Z,5.80
2022-10-23T12:07:59.446Z,5.60
2022-10-23T12:10:31.298Z,5.50
2022-10-23T12:13:02.007Z,5.90
2022-10-23T12:15:32.535Z,4.40
2022-10-23T12:18:29.930Z,5.30
2022-10-23T12:21:00.223Z,5.60
2022-10-23T12:24:00.506Z,4.80
2022-10-23T12:26:50.653Z,4.60
2022-10-23T12:29:37.001Z,4.70
2022-10-23T12:34:51.754Z,4.70
2022-10-23T12:37:29.144Z,3.70
2022-10-23T12:39:59.290Z,3.90
2022-10-23T12:42:29.701Z,3.60
2022-10-23T12:44:59.909Z,4.40
2022-10-23T12:47:30.168Z,3.90
2022-10-23T12:49:58.220Z,3.60
2022-10-23T12:52:26.332Z,3.40
2022-10-23T12:54:54.362Z,3.70
2022-10-23T12:57:26.564Z,4.00
2022-10-23T13:00:11.136Z,3.80
2022-10-23T13:02:39.255Z,3.80
2022-10-23T13:05:13.435Z,4.10
2022-10-23T13:07:46.392Z,4.20
2022-10-23T13:10:20.123Z,4.30
2022-10-23T13:13:07.009Z,4.30
2022-10-23T13:15:45.152Z,4.50
2022-10-23T13:18:15.011Z,4.10
2022-10-23T13:20:56.820Z,4.50
2022-10-23T13:23:33.299Z,2.90
2022-10-23T13:26:02.687Z,3.80
2022-10-23T13:28:43.939Z,4.30
2022-10-23T13:31:12.580Z,3.70
2022-10-23T13:33:48.090Z,3.90
2022-10-23T13:36:16.819Z,4.00
2022-10-23T13:38:46.221Z,4.30
2022-10-23T13:41:21.471Z,4.50
2022-10-23T13:43:49.578Z,4.00
2022-10-23T13:46:23.352Z,4.70
2022-10-23T13:48:51.924Z,4.80
2022-10-23T13:51:25.437Z,5.00
2022-10-23T13:53:55.452Z,4.80
2022-10-23T13:56:25.589Z,4.70
2022-10-23T13:58:53.973Z,5.40
2022-10-23T14:01:32.695Z,5.30
2022-10-23T14:04:00.952Z,5.20
2022-10-23T14:08:57.362Z,5.90
2022-10-23T14:11:25.993Z,5.80
2022-10-23T14:13:54.035Z,7.10
2022-10-23T14:16:22.468Z,6.70
2022-10-23T14:18:50.489Z,5.60
2022-10-23T14:21:20.693Z,6.00
2022-10-23T14:23:50.438Z,6.00
2022-10-23T14:26:22.201Z,6.40
2022-10-23T14:28:53.187Z,6.30
2022-10-23T14:31:21.993Z,5.90
2022-10-23T14:33:56.205Z,6.30
2022-10-23T14:36:28.244Z,6.30
2022-10-23T14:39:02.798Z,6.20
2022-10-23T14:41:30.755Z,5.90
2022-10-23T14:43:58.808Z,6.30
2022-10-23T14:46:28.155Z,6.70
2022-10-23T14:48:59.877Z,7.30
2022-10-23T14:51:32.201Z,7.00
2022-10-23T14:54:02.562Z,6.50
2022-10-23T14:56:33.395Z,6.10
2022-10-23T14:59:04.800Z,6.90
2022-10-23T15:01:36.106Z,6.60
2022-10-23T15:04:04.853Z,6.30
2022-10-23T15:06:33.749Z,7.60
2022-10-23T15:09:03.068Z,7.40
2022-10-23T15:11:31.771Z,8.20
2022-10-23T15:14:00.727Z,7.90
2022-10-23T15:16:28.786Z,7.50
2022-10-23T15:18:56.940Z,7.90
2022-10-23T15:21:25.315Z,7.40
2022-10-23T15:23:54.873Z,8.80
2022-10-23T15:26:24.071Z,7.30
2022-10-23T15:28:57.685Z,8.00
2022-10-23T15:31:43.579Z,7.50
2022-10-23T15:34:16.422Z,9.00
2022-10-23T15:36:47.121Z,8.40
2022-10-23T15:39:18.112Z,9.10
2022-10-23T15:41:47.344Z,8.50
2022-10-23T15:44:17.637Z,8.50
2022-10-23T15:46:45.870Z,8.90
2022-10-23T15:49:14.117Z,8.30
2022-10-23T15:51:42.812Z,8.90
2022-10-23T15:54:16.766Z,10.50
2022-10-23T15:56:50.457Z,9.80
2022-10-23T15:59:21.052Z,10.60
2022-10-23T16:01:50.027Z,9.80
2022-10-23T16:04:18.370Z,9.80
2022-10-23T16:06:46.763Z,13.10
2022-10-23T16:09:15.840Z,13.80
2022-10-23T16:11:44.451Z,14.10
2022-10-23T16:14:15.122Z,13.60
2022-10-23T16:16:43.210Z,10.90
2022-10-23T16:19:12.149Z,11.70
2022-10-23T16:21:40.447Z,10.80
2022-10-23T16:24:09.146Z,8.70
2022-10-23T16:26:37.939Z,9.60
2022-10-23T16:29:08.132Z,10.20
2022-10-23T16:31:36.707Z,12.20
2022-10-23T16:34:05.568Z,15.20
2022-10-23T16:36:34.568Z,15.40
2022-10-23T16:39:15.413Z,14.50
2022-10-23T16:42:02.115Z,12.80
2022-10-23T16:47:21.425Z,10.80
2022-10-23T16:49:49.419Z,8.70
2022-10-23T16:52:17.444Z,10.50
2022-10-23T16:54:45.561Z,9.80
2022-10-23T16:57:13.600Z,11.50
2022-10-23T16:59:41.589Z,10.80
2022-10-23T17:02:11.888Z,11.20
2022-10-23T17:04:40.613Z,11.40
2022-10-23T17:07:08.809Z,10.80
2022-10-23T17:09:38.621Z,11.60
2022-10-23T17:12:07.012Z,12.70
2022-10-23T17:14:35.034Z,11.60
2022-10-23T17:17:03.800Z,13.40
2022-10-23T17:19:44.135Z,13.50
2022-10-23T17:22:13.469Z,12.80
2022-10-23T17:24:42.592Z,11.30
2022-10-23T17:27:10.922Z,13.00
2022-10-23T17:29:39.490Z,12.40
2022-10-23T17:32:08.276Z,12.10
2022-10-23T17:34:36.453Z,11.90
2022-10-23T17:37:05.059Z,12.80
2022-10-23T17:39:33.110Z,13.60
2022-10-23T17:42:01.050Z,12.60
2022-10-23T17:44:29.396Z,13.00
2022-10-23T17:46:57.439Z,13.90
2022-10-23T17:49:25.816Z,12.90
2022-10-23T17:51:55.873Z,12.50
2022-10-23T17:54:26.486Z,12.80
2022-10-23T17:56:55.573Z,12.70
2022-10-23T17:59:23.727Z,13.70
2022-10-23T18:01:51.934Z,14.10
2022-10-23T18:04:21.416Z,13.70
2022-10-23T18:06:53.069Z,18.10
2022-10-23T18:09:22.751Z,21.80
2022-10-23T18:11:52.876Z,22.90
2022-10-23T18:14:21.740Z,18.20
2022-10-23T18:16:52.634Z,19.40
2022-10-23T18:19:20.833Z,17.10
2022-10-23T18:21:49.869Z,14.80
2022-10-23T18:24:18.992Z,13.70
2022-10-23T18:26:48.379Z,12.40
2022-10-23T18:29:17.597Z,11.90
2022-10-23T18:31:48.385Z,11.80
2022-10-23T18:34:22.013Z,11.60
2022-10-23T18:36:51.991Z,9.70
2022-10-23T18:39:22.819Z,10.10
2022-10-23T18:41:53.427Z,9.90
2022-10-23T18:44:22.936Z,10.80
2022-10-23T18:46:51.971Z,9.90
2022-10-23T18:49:20.449Z,10.00
2022-10-23T18:51:50.220Z,11.20
2022-10-23T18:54:20.558Z,12.20
2022-10-23T18:56:48.813Z,10.00
2022-10-23T18:59:20.157Z,9.20
2022-10-23T19:01:49.210Z,10.90
2022-10-23T19:04:18.589Z,9.80
2022-10-23T19:06:49.520Z,10.50
2022-10-23T19:09:18.096Z,10.10
2022-10-23T19:11:46.297Z,10.00
2022-10-23T19:14:14.625Z,11.70
2022-10-23T19:17:23.328Z,11.00
2022-10-23T19:19:59.704Z,10.70
2022-10-23T19:22:30.146Z,11.10
2022-10-23T19:25:05.628Z,9.70
2022-10-23T19:27:33.711Z,10.60
2022-10-23T19:30:05.211Z,12.20
2022-10-23T19:32:33.612Z,14.00
2022-10-23T19:35:01.731Z,14.00
2022-10-23T19:37:29.890Z,14.00
2022-10-23T19:39:58.537Z,14.10
2022-10-23T19:44:54.586Z,14.20
2022-10-23T19:47:22.812Z,13.90
2022-10-23T19:49:52.015Z,15.60
2022-10-23T19:52:22.334Z,17.00
2022-10-23T19:54:51.367Z,15.50
2022-10-23T19:57:22.499Z,17.00
2022-10-23T19:59:52.925Z,16.90
2022-10-23T20:02:22.108Z,19.10
2022-10-23T20:04:51.477Z,17.30
2022-10-23T20:07:19.527Z,17.20
2022-10-23T20:09:47.668Z,17.80
2022-10-23T20:12:15.781Z,19.00
2022-10-23T20:14:44.412Z,19.10
2022-10-23T20:17:12.434Z,20.30
2022-10-23T20:19:40.557Z,19.20
2022-10-23T20:22:08.569Z,19.20
2022-10-23T20:24:36.651Z,17.70
2022-10-23T20:27:04.604Z,19.60
2022-10-23T20:29:32.594Z,18.00
2022-10-23T20:32:00.640Z,18.00
2022-10-23T20:34:28.674Z,19.20
2022-10-23T20:36:56.666Z,18.70
2022-10-23T20:39:25.775Z,21.10
2022-10-23T20:41:57.060Z,20.80
2022-10-23T20:44:25.027Z,22.40
2022-10-23T20:46:53.384Z,23.30
2022-10-23T20:49:22.689Z,25.40
2022-10-23T20:51:55.158Z,22.60
2022-10-23T20:54:25.823Z,21.70
2022-10-23T20:56:53.827Z,23.10
2022-10-23T20:59:21.925Z,22.70
2022-10-23T21:01:53.486Z,24.80
2022-10-23T21:04:25.088Z,24.70
2022-10-23T21:07:09.427Z,24.50
2022-10-23T21:09:38.750Z,22.10
2022-10-23T21:12:07.313Z,24.80
2022-10-23T21:14:36.241Z,24.20
2022-10-23T21:17:05.250Z,22.60
2022-10-23T21:19:33.213Z,22.10
2022-10-23T21:22:04.319Z,24.00
2022-10-23T21:24:32.351Z,22.50
2022-10-23T21:27:00.402Z,22.20
2022-10-23T21:29:28.406Z,21.30
2022-10-23T21:31:59.398Z,20.00
2022-10-23T21:34:28.341Z,18.40
2022-10-23T21:37:13.404Z,21.70
2022-10-23T21:39:43.578Z,19.60
2022-10-23T21:42:12.953Z,19.10
2022-10-23T21:44:40.907Z,17.60
2022-10-23T21:47:08.953Z,17.60
2022-10-23T21:49:37.273Z,17.10
2022-10-23T21:52:05.263Z,17.40
2022-10-23T21:54:33.351Z,17.60
2022-10-23T21:57:03.333Z,15.10
2022-10-23T21:59:35.571Z,14.70
2022-10-23T22:02:04.377Z,16.40
2022-10-23T22:04:32.891Z,14.20
2022-10-23T22:07:03.148Z,12.80
2022-10-23T22:09:32.341Z,12.80
2022-10-23T22:12:01.169Z,11.60
2022-10-23T22:14:29.311Z,12.00
2022-10-23T22:16:58.691Z,12.40
2022-10-23T22:19:26.948Z,12.30
2022-10-23T22:21:55.579Z,10.00
2022-10-23T22:24:23.911Z,10.90
2022-10-23T22:26:54.636Z,8.80
2022-10-23T22:29:27.589Z,9.80
2022-10-23T22:31:56.791Z,8.10
2022-10-23T22:37:17.194Z,8.10
2022-10-23T22:39:45.284Z,8.90
2022-10-23T22:42:13.361Z,6.70
2022-10-23T22:44:41.425Z,7.40
2022-10-23T22:47:09.614Z,7.00
2022-10-23T22:49:38.565Z,6.90
2022-10-23T22:52:06.677Z,8.30
2022-10-23T22:54:34.841Z,8.20
2022-10-23T22:57:02.875Z,8.40
2022-10-23T22:59:30.888Z,7.20
2022-10-23T23:01:58.860Z,7.50
2022-10-23T23:04:43.094Z,7.30
2022-10-23T23:07:12.784Z,7.70
2022-10-23T23:09:44.089Z,7.90
2022-10-23T23:12:14.187Z,7.50
2022-10-23T23:14:43.354Z,7.00
2022-10-23T23:17:12.178Z,7.20
2022-10-23T23:19:40.288Z,6.70
2022-10-23T23:22:08.568Z,6.60
2022-10-23T23:24:36.651Z,7.60
2022-10-23T23:27:04.678Z,7.10
2022-10-23T23:29:32.798Z,6.90
2022-10-23T23:32:00.946Z,6.90
2022-10-23T23:34:29.464Z,6.10
2022-10-23T23:36:57.889Z,7.00
2022-10-23T23:39:26.477Z,6.50
2022-10-23T23:41:54.852Z,6.40
2022-10-23T23:44:23.070Z,6.50
2022-10-23T23:46:51.139Z,5.70
2022-10-23T23:49:19.112Z,5.60
2022-10-23T23:51:47.267Z,5.60
2022-10-23T23:54:15.505Z,7.40
2022-10-23T23:56:43.519Z,7.40
2022-10-23T23:59:11.558Z,8.00
